Etusivu
METAR-TAF:

METAR-TAF

Lentoasemat :

Curaçao, Alankomaiden Antillit

Leveyspiiri: 12-12N, Pituuspiiri: 068-58W, korkeus merenpinnasta: 9 m

Tämänhetkinen sää

Tämä raportti tehtiin 19 tuntia ja 7 minuuttia sitten, kello 14.00 UTC
Tuuli 14 kn idästä
Lämpötila 28°C
Kosteus 70%
Ilmanpaine 1018 hPa
Näkyvyys 10 km tai enemmän
Hajanaisia pilviä 2000 ft:n korkeudessa

METAR: TNCC 201400Z 08014KT 9999 SCT020 28/22 Q1018 NOSIG

Aika: 05:07 (09:07 UTC)

Sääennuste

Tämä raportti tehtiin 23 tuntia ja 37 minuuttia sitten, kello 09.30 UTC
Ennuste voimassa 20. päivästä klo 12 UTC - 21. päivään klo 12 UTC
Tuuli 16 kn idästä
Näkyvyys 10 km tai enemmän
Hajanaisia pilviä 2000 ft:n korkeudessa
Ajoittain
20. päivästä klo 12 UTC - 21. päivään klo 06 UTC
Näkyvyys: 5000 m
Hajonneita pilviä 1400 ft:n korkeudessa
vesikuuroja

TAF: TNCC 200930Z 2012/2112 09016KT 9999 SCT020 TEMPO 2012/2106 5000 SHRA BKN014

Säähavainnot ja -ennusteet yli 4000 lentoasemalta (METAR- ja TAF-raportit).

Käytössä olevat sääasemat on merkitty karttaan keltaisilla ja punaisilla pisteillä.

Aseta hiiri pisteen päälle nähdäksesi sääaseman nimen.

Klikkaa sitten nähdäksesi säähavainnot ja -ennusteet.

Kartan vaihtaminen: klikkaa mustalla rastilla varustettuja vihreitä pisteitä, niin voit zoomata sisään; viivalla varustettua vihreää pistettä, niin voit zoomata ulos tai vihreitä nuolia, niin pääset viereisille kartoille.


METAR-TAF: